Time;durP1;ratioP1;P1;durP2;ratioP2;P2;SDS_P1;SDS_P2;PMS_P1;PMS_P2;Temp;Humidity;BMP_temperature;BMP_pressure;BME280_temperature;BME280_humidity;BME280_pressure;Samples;Min_cycle;Max_cycle;Signal;HPM_P1;HPM_P2
2023/03/08 00:00:53;;;;;;;;;;;;;;;21.09;33.21;99516.25;7254221;19;152072;-55
2023/03/08 00:03:37;;;;;;;;;;;;;;;21.09;33.26;99516.25;7255055;19;154335;-55
2023/03/08 00:06:17;;;;;;;;;;;;;;;21.10;32.93;99501.03;7256036;19;152844;-55
2023/03/08 00:09:18;;;;;;;;;;;;;;;21.10;33.36;99501.03;7256281;19;151976;-55
2023/03/08 00:11:54;;;;;;;;;;;;;;;21.10;33.01;99495.44;7262391;19;153882;-55
2023/03/08 00:14:26;;;;;;;;;;;;;;;21.10;33.20;99495.44;7257962;19;153586;-55
2023/03/08 00:17:11;;;;;;;;;;;;;;;21.09;33.40;99493.78;7258171;19;153365;-55
2023/03/08 00:19:40;;;;;;;;;;;;;;;21.09;33.04;99483.38;7265925;19;154237;-55
2023/03/08 00:22:08;;;;;;;;;;;;;;;21.08;33.30;99481.72;7261143;19;154086;-55
2023/03/08 00:24:47;;;;;;;;;;;;;;;21.08;33.38;99486.50;7258811;19;153788;-55
2023/03/08 00:27:23;;;;;;;;;;;;;;;21.03;33.70;99484.75;7258623;19;153454;-55
2023/03/08 00:30:17;;;;;;;;;;;;;;;21.06;33.80;99497.28;7257910;19;152192;-55
2023/03/08 00:33:04;;;;;;;;;;;;;;;21.05;33.83;99481.59;7257942;19;154456;-55
2023/03/08 00:35:44;;;;;;;;;;;;;;;21.06;33.78;99475.66;7254441;19;152572;-55
2023/03/08 00:38:16;;;;;;;;;;;;;;;21.05;34.10;99476.81;7260924;19;152864;-54
2023/03/08 00:40:54;;;;;;;;;;;;;;;21.03;34.29;99478.34;7258513;19;154289;-54
2023/03/08 00:43:35;;;;;;;;;;;;;;;21.01;33.99;99473.06;7264347;19;153836;-54
2023/03/08 00:46:14;;;;;;;;;;;;;;;20.99;33.94;99461.34;7258142;19;153373;-54
2023/03/08 00:48:47;;;;;;;;;;;;;;;20.99;34.13;99452.91;7254070;19;152785;-54
2023/03/08 00:51:31;;;;;;;;;;;;;;;20.94;34.32;99439.09;7258631;19;153892;-54
2023/03/08 00:54:16;;;;;;;;;;;;;;;20.90;34.35;99445.75;7252400;19;153531;-54
2023/03/08 00:56:52;;;;;;;;;;;;;;;20.88;34.79;99434.91;7252322;19;153005;-55
2023/03/08 00:59:36;;;;;;;;;;;;;;;20.91;34.53;99430.56;7253218;19;153701;-55
2023/03/08 01:02:12;;;;;;;;;;;;;;;20.85;34.65;99427.97;7258188;19;153509;-54
2023/03/08 01:04:50;;;;;;;;;;;;;;;20.83;34.97;99429.50;7251019;19;155184;-55
2023/03/08 01:07:27;;;;;;;;;;;;;;;20.81;34.94;99423.41;7263382;19;154720;-54
2023/03/08 01:10:17;;;;;;;;;;;;;;;20.80;34.96;99413.38;7252777;19;153161;-54
2023/03/08 01:13:05;;;;;;;;;;;;;;;20.79;34.74;99408.91;7255613;19;154053;-55
2023/03/08 01:15:57;;;;;;;;;;;;;;;20.79;34.97;99409.72;7252940;19;152957;-54
2023/03/08 01:18:42;;;;;;;;;;;;;;;20.78;34.98;99390.41;7254318;19;153224;-54
2023/03/08 01:21:25;;;;;;;;;;;;;;;20.75;35.26;99394.75;7258055;19;154130;-54
2023/03/08 01:24:02;;;;;;;;;;;;;;;20.72;35.44;99387.00;7254442;19;153401;-55
2023/03/08 01:26:39;;;;;;;;;;;;;;;20.71;35.24;99384.56;7255034;19;152458;-55
2023/03/08 01:29:27;;;;;;;;;;;;;;;20.67;35.54;99384.44;7256286;19;152930;-54
2023/03/08 01:31:56;;;;;;;;;;;;;;;20.65;35.61;99377.53;7256783;19;153932;-54
2023/03/08 01:34:28;;;;;;;;;;;;;;;20.63;35.64;99360.22;7255755;19;152631;-54
2023/03/08 01:37:04;;;;;;;;;;;;;;;20.58;35.73;99354.84;7253123;19;154048;-54
2023/03/08 01:40:00;;;;;;;;;;;;;;;20.55;35.71;99352.72;7253423;19;152910;-54
2023/03/08 01:42:39;;;;;;;;;;;;;;;20.52;35.55;99347.81;7255292;19;153173;-55
2023/03/08 01:45:33;;;;;;;;;;;;;;;20.48;35.51;99341.25;7252053;19;153960;-55
2023/03/08 01:48:10;;;;;;;;;;;;;;;20.45;36.08;99314.69;7249257;19;154167;-55
2023/03/08 01:50:48;;;;;;;;;;;;;;;20.43;35.66;99319.84;7255885;19;153986;-55
2023/03/08 01:53:39;;;;;;;;;;;;;;;20.41;35.77;99308.16;7252090;19;154285;-55
2023/03/08 01:56:32;;;;;;;;;;;;;;;20.38;35.78;99292.03;7260429;19;152479;-55
2023/03/08 01:58:59;;;;;;;;;;;;;;;20.36;36.32;99285.94;7253877;19;153925;-56
2023/03/08 02:01:26;;;;;;;;;;;;;;;20.35;36.07;99275.91;7249660;19;154582;-54
2023/03/08 02:03:52;;;;;;;;;;;;;;;20.30;36.34;99262.09;7251378;19;152737;-55
2023/03/08 02:06:20;;;;;;;;;;;;;;;20.26;36.12;99264.72;7250458;19;154740;-55
2023/03/08 02:08:47;;;;;;;;;;;;;;;20.23;36.14;99257.03;7248477;19;154674;-55
2023/03/08 02:11:17;;;;;;;;;;;;;;;20.20;36.54;99248.50;7254442;19;153957;-54
2023/03/08 02:13:44;;;;;;;;;;;;;;;20.19;36.41;99246.84;7253193;19;154573;-53
2023/03/08 02:16:11;;;;;;;;;;;;;;;20.13;36.77;99235.03;7258173;19;153297;-54
2023/03/08 02:18:48;;;;;;;;;;;;;;;20.11;36.57;99236.56;7252442;19;154648;-54
2023/03/08 02:21:15;;;;;;;;;;;;;;;20.08;36.68;99226.84;7254484;19;153344;-54
2023/03/08 02:23:42;;;;;;;;;;;;;;;20.05;36.89;99218.31;7252793;19;153285;-54
2023/03/08 02:26:08;;;;;;;;;;;;;;;20.01;36.88;99211.75;7252705;19;154490;-54
2023/03/08 02:28:35;;;;;;;;;;;;;;;20.01;36.79;99217.38;7251277;19;156593;-54
2023/03/08 02:31:02;;;;;;;;;;;;;;;19.97;36.76;99211.63;7249573;19;153267;-54
2023/03/08 02:33:38;;;;;;;;;;;;;;;19.93;37.21;99210.69;7252069;19;154734;-53
2023/03/08 02:36:07;;;;;;;;;;;;;;;19.91;36.88;99210.22;7251519;19;153941;-54
2023/03/08 02:38:34;;;;;;;;;;;;;;;19.90;37.16;99211.38;7260908;19;153246;-54
2023/03/08 02:41:00;;;;;;;;;;;;;;;19.88;36.86;99208.13;7249997;19;153996;-54
2023/03/08 02:43:27;;;;;;;;;;;;;;;19.87;37.14;99200.88;7254257;19;153248;-56
2023/03/08 02:45:54;;;;;;;;;;;;;;;19.84;37.27;99191.19;7249777;19;154250;-54
2023/03/08 02:48:21;;;;;;;;;;;;;;;19.81;37.34;99189.06;7247693;19;154083;-53
2023/03/08 02:50:48;;;;;;;;;;;;;;;19.79;37.66;99176.56;7251512;19;153700;-53
2023/03/08 02:53:14;;;;;;;;;;;;;;;19.77;37.51;99165.69;7253659;19;154779;-53
2023/03/08 02:55:41;;;;;;;;;;;;;;;19.76;37.51;99160.44;7248698;19;156195;-53
2023/03/08 02:58:09;;;;;;;;;;;;;;;19.74;37.30;99162.78;7250439;19;153463;-53
2023/03/08 03:00:37;;;;;;;;;;;;;;;19.72;37.41;99165.09;7255630;19;154928;-53
2023/03/08 03:03:04;;;;;;;;;;;;;;;19.69;37.59;99155.41;7249699;19;152889;-53
2023/03/08 03:05:30;;;;;;;;;;;;;;;19.67;37.88;99152.13;7249721;19;154550;-53
2023/03/08 03:07:58;;;;;;;;;;;;;;;19.65;37.80;99146.06;7252656;19;152803;-53
2023/03/08 03:10:24;;;;;;;;;;;;;;;19.65;37.87;99139.63;7253964;19;153433;-54
2023/03/08 03:12:51;;;;;;;;;;;;;;;19.62;37.50;99131.94;7248069;19;156544;-53
2023/03/08 03:15:18;;;;;;;;;;;;;;;19.60;37.81;99123.88;7248277;19;154457;-53
2023/03/08 03:17:45;;;;;;;;;;;;;;;19.59;37.83;99119.41;7250105;19;153072;-54
2023/03/08 03:20:12;;;;;;;;;;;;;;;19.57;38.15;99123.75;7257021;19;155081;-53
2023/03/08 03:22:39;;;;;;;;;;;;;;;19.57;37.70;99112.53;7262114;19;153477;-53
2023/03/08 03:25:06;;;;;;;;;;;;;;;19.52;38.07;99114.41;7255088;19;154616;-56
2023/03/08 03:27:33;;;;;;;;;;;;;;;19.50;37.89;99107.50;7254852;19;153121;-53
2023/03/08 03:30:00;;;;;;;;;;;;;;;19.49;37.84;99108.66;7255881;19;152489;-53
2023/03/08 03:32:27;;;;;;;;;;;;;;;19.46;37.99;99086.94;7254658;19;153657;-54
2023/03/08 03:34:54;;;;;;;;;;;;;;;19.44;38.36;99081.69;7255009;19;152878;-53
2023/03/08 03:37:21;;;;;;;;;;;;;;;19.43;38.05;99080.06;7256605;19;154799;-55
2023/03/08 03:39:47;;;;;;;;;;;;;;;19.41;38.03;99084.31;7256156;19;153045;-54
2023/03/08 03:42:14;;;;;;;;;;;;;;;19.39;38.33;99079.09;7250794;19;154457;-54
2023/03/08 03:44:42;;;;;;;;;;;;;;;19.36;38.07;99071.38;7239672;19;155510;-56
2023/03/08 03:47:09;;;;;;;;;;;;;;;19.35;38.37;99068.94;7249419;19;153736;-53
2023/03/08 03:49:36;;;;;;;;;;;;;;;19.33;38.44;99065.66;7257492;19;154314;-54
2023/03/08 03:52:03;;;;;;;;;;;;;;;19.30;38.59;99053.16;7255118;19;153509;-53
2023/03/08 03:54:30;;;;;;;;;;;;;;;19.30;38.29;99050.38;7235076;19;153790;-53
2023/03/08 03:56:59;;;;;;;;;;;;;;;19.29;38.62;99042.31;7254713;19;155211;-54
2023/03/08 03:59:25;;;;;;;;;;;;;;;19.27;38.29;99036.22;7253906;19;155184;-54
2023/03/08 04:01:52;;;;;;;;;;;;;;;19.24;38.59;99037.75;7254617;19;152151;-54
2023/03/08 04:04:20;;;;;;;;;;;;;;;19.24;38.35;99039.72;7242077;19;154135;-54
2023/03/08 04:06:47;;;;;;;;;;;;;;;19.21;38.36;99032.84;7250610;19;154467;-54
2023/03/08 04:09:15;;;;;;;;;;;;;;;19.19;38.44;99029.56;7250004;19;152690;-54
2023/03/08 04:11:41;;;;;;;;;;;;;;;19.17;38.88;99026.28;7254638;19;154962;-54
2023/03/08 04:14:09;;;;;;;;;;;;;;;19.16;38.75;99029.44;7237530;19;157629;-54
2023/03/08 04:16:38;;;;;;;;;;;;;;;19.13;38.92;99019.75;7253544;19;153147;-54
2023/03/08 04:19:07;;;;;;;;;;;;;;;19.13;38.73;99024.50;7254576;19;154026;-54
2023/03/08 04:21:34;;;;;;;;;;;;;;;19.10;38.90;99018.47;7254398;19;154135;-54
2023/03/08 04:24:01;;;;;;;;;;;;;;;19.09;38.93;99016.00;7241710;19;153435;-54
2023/03/08 04:26:30;;;;;;;;;;;;;;;19.06;38.82;99002.72;7249767;19;154388;-54
2023/03/08 04:28:57;;;;;;;;;;;;;;;19.04;38.92;99008.63;7256319;19;153838;-54
2023/03/08 04:31:26;;;;;;;;;;;;;;;19.03;39.22;99009.00;7253393;19;154171;-55
2023/03/08 04:33:54;;;;;;;;;;;;;;;19.00;39.10;99006.88;7254310;19;154418;-55
2023/03/08 04:36:21;;;;;;;;;;;;;;;19.02;38.86;99007.38;7253847;19;154587;-54
2023/03/08 04:38:49;;;;;;;;;;;;;;;18.98;39.07;99004.44;7252836;19;153792;-54
2023/03/08 04:41:16;;;;;;;;;;;;;;;18.95;39.08;98991.13;7254216;19;154190;-54
2023/03/08 04:43:43;;;;;;;;;;;;;;;18.97;39.32;98994.41;7253676;19;153517;-55
2023/03/08 04:46:10;;;;;;;;;;;;;;;18.95;39.41;98990.31;7252373;19;153637;-54
2023/03/08 04:48:37;;;;;;;;;;;;;;;18.93;39.04;98987.88;7259378;19;152732;-54
2023/03/08 04:51:06;;;;;;;;;;;;;;;18.90;39.32;98977.34;7257808;19;154352;-54
2023/03/08 04:53:33;;;;;;;;;;;;;;;18.89;39.62;98969.31;7251253;19;155329;-55
2023/03/08 04:56:00;;;;;;;;;;;;;;;18.87;39.31;98966.03;7254995;19;153750;-55
2023/03/08 04:58:28;;;;;;;;;;;;;;;18.88;39.60;98962.06;7253660;19;153077;-53
2023/03/08 05:00:55;;;;;;;;;;;;;;;18.84;39.43;98964.75;7253378;19;155290;-54
2023/03/08 05:03:22;;;;;;;;;;;;;;;18.81;39.44;98968.22;7253953;19;153250;-54
2023/03/08 05:05:50;;;;;;;;;;;;;;;18.80;39.27;98972.22;7251675;19;153833;-53
2023/03/08 05:08:17;;;;;;;;;;;;;;;18.79;39.54;98981.75;7252551;19;153289;-54
2023/03/08 05:10:47;;;;;;;;;;;;;;;18.76;39.63;98981.63;7258209;19;152962;-54
2023/03/08 05:13:14;;;;;;;;;;;;;;;18.75;39.69;98972.44;7253602;19;153295;-54
2023/03/08 05:15:41;;;;;;;;;;;;;;;18.77;39.68;98969.25;7252469;19;154748;-54
2023/03/08 05:18:08;;;;;;;;;;;;;;;18.73;39.93;98957.13;7253499;19;152716;-54
2023/03/08 05:20:35;;;;;;;;;;;;;;;18.72;39.62;98941.50;7250619;19;155102;-54
2023/03/08 05:23:02;;;;;;;;;;;;;;;18.71;39.80;98928.69;7254205;19;154147;-54
2023/03/08 05:25:30;;;;;;;;;;;;;;;18.73;39.50;98931.94;7250552;19;154758;-53
2023/03/08 05:27:57;;;;;;;;;;;;;;;18.80;39.19;98938.63;7253222;19;153481;-54
2023/03/08 05:30:24;;;;;;;;;;;;;;;18.77;39.73;98933.72;7252375;19;154031;-54
2023/03/08 05:32:50;;;;;;;;;;;;;;;18.84;40.03;98935.97;7260469;19;153439;-54
2023/03/08 05:35:17;;;;;;;;;;;;;;;18.87;40.13;98927.69;7251974;19;153465;-55
2023/03/08 05:37:44;;;;;;;;;;;;;;;18.91;40.00;98927.81;7253578;19;153425;-55
2023/03/08 05:40:11;;;;;;;;;;;;;;;18.94;40.28;98929.94;7248601;19;154050;-55
2023/03/08 05:42:40;;;;;;;;;;;;;;;18.98;40.33;98934.47;7250252;19;153741;-55
2023/03/08 05:45:07;;;;;;;;;;;;;;;19.03;39.89;98923.03;7250816;19;154482;-54
2023/03/08 05:47:34;;;;;;;;;;;;;;;19.07;40.08;98921.19;7251908;19;155111;-55
2023/03/08 05:50:01;;;;;;;;;;;;;;;19.10;40.62;98920.50;7251358;19;153489;-55
2023/03/08 05:52:29;;;;;;;;;;;;;;;19.14;40.63;98926.22;7252733;19;153424;-54
2023/03/08 05:54:59;;;;;;;;;;;;;;;19.18;40.61;98923.53;7254957;19;154615;-54
2023/03/08 05:57:27;;;;;;;;;;;;;;;19.23;40.81;98917.69;7252246;19;152058;-55
2023/03/08 05:59:54;;;;;;;;;;;;;;;19.27;40.86;98927.03;7249379;19;153007;-55
2023/03/08 06:02:20;;;;;;;;;;;;;;;19.31;40.85;98913.97;7253168;19;155089;-54
2023/03/08 06:04:47;;;;;;;;;;;;;;;19.35;40.75;98914.91;7250930;19;152491;-55
2023/03/08 06:07:14;;;;;;;;;;;;;;;19.41;40.49;98924.69;7249384;19;154268;-59
2023/03/08 06:09:41;;;;;;;;;;;;;;;19.45;40.46;98908.84;7247222;19;154001;-54
2023/03/08 06:12:08;;;;;;;;;;;;;;;19.49;40.66;98893.81;7247741;19;154003;-55
2023/03/08 06:14:35;;;;;;;;;;;;;;;19.53;40.66;98885.53;7256754;19;155651;-55
2023/03/08 06:17:04;;;;;;;;;;;;;;;19.59;40.59;98878.50;7253683;19;154605;-54
2023/03/08 06:19:31;;;;;;;;;;;;;;;19.65;40.44;98867.88;7250860;19;153156;-55
2023/03/08 06:21:58;;;;;;;;;;;;;;;19.70;40.33;98845.22;7251868;19;153627;-54
2023/03/08 06:24:25;;;;;;;;;;;;;;;19.75;40.52;98839.38;7249948;19;152894;-55
2023/03/08 06:26:54;;;;;;;;;;;;;;;19.79;40.22;98837.50;7248459;19;153649;-54
2023/03/08 06:29:21;;;;;;;;;;;;;;;19.83;40.14;98842.03;7249545;19;153761;-54
2023/03/08 06:31:48;;;;;;;;;;;;;;;19.89;40.07;98842.59;7252281;19;154041;-55
2023/03/08 06:34:15;;;;;;;;;;;;;;;19.93;40.15;98840.72;7250573;19;155754;-55
2023/03/08 06:36:42;;;;;;;;;;;;;;;19.98;39.85;98834.88;7258891;19;153977;-54
2023/03/08 06:39:09;;;;;;;;;;;;;;;20.02;39.87;98832.16;7247800;19;152438;-54
2023/03/08 06:41:36;;;;;;;;;;;;;;;20.07;39.74;98840.31;7251958;19;152642;-54
2023/03/08 06:44:03;;;;;;;;;;;;;;;20.12;39.62;98838.09;7249865;19;153948;-54
2023/03/08 06:46:30;;;;;;;;;;;;;;;20.16;39.70;98839.00;7250527;19;153617;-54
2023/03/08 06:48:59;;;;;;;;;;;;;;;20.21;39.36;98843.53;7250063;19;153823;-54
2023/03/08 06:51:26;;;;;;;;;;;;;;;20.25;39.63;98852.84;7252391;19;154440;-54
2023/03/08 06:53:52;;;;;;;;;;;;;;;20.29;39.67;98854.59;7251890;19;152745;-55
2023/03/08 06:56:19;;;;;;;;;;;;;;;20.34;39.90;98856.34;7257328;19;153061;-55
2023/03/08 06:58:46;;;;;;;;;;;;;;;20.37;39.38;98848.03;7264075;19;153913;-55
2023/03/08 07:01:13;;;;;;;;;;;;;;;20.42;39.44;98853.38;7258114;19;155256;-54
2023/03/08 07:03:44;;;;;;;;;;;;;;;20.49;39.67;98849.16;7257775;19;153071;-54
2023/03/08 07:06:11;;;;;;;;;;;;;;;20.51;39.42;98849.59;7257387;19;152393;-55
2023/03/08 07:08:39;;;;;;;;;;;;;;;20.54;39.16;98863.72;7255488;19;153740;-54
2023/03/08 07:11:09;;;;;;;;;;;;;;;20.57;39.47;98857.41;7256279;19;154659;-55
2023/03/08 07:13:36;;;;;;;;;;;;;;;20.60;39.29;98853.03;7254587;19;153559;-58
2023/03/08 07:16:08;;;;;;;;;;;;;;;20.65;39.14;98855.59;7258811;19;152300;-54
2023/03/08 07:18:35;;;;;;;;;;;;;;;20.65;38.81;98853.59;7259612;19;153938;-54
2023/03/08 07:21:02;;;;;;;;;;;;;;;20.67;38.68;98856.84;7267083;19;152722;-54
2023/03/08 07:23:32;;;;;;;;;;;;;;;20.70;38.86;98867.38;7259722;19;153866;-54
2023/03/08 07:26:02;;;;;;;;;;;;;;;20.71;39.01;98866.19;7256943;19;157056;-54
2023/03/08 07:28:29;;;;;;;;;;;;;;;20.73;38.53;98885.47;7258514;19;153685;-54
2023/03/08 07:30:56;;;;;;;;;;;;;;;20.74;38.39;98890.72;7258267;19;152662;-55
2023/03/08 07:33:23;;;;;;;;;;;;;;;20.76;38.76;98879.94;7256811;19;154629;-54
2023/03/08 07:35:50;;;;;;;;;;;;;;;20.78;38.69;98876.78;7258115;19;152872;-54
2023/03/08 07:38:18;;;;;;;;;;;;;;;20.79;38.59;98862.41;7260593;19;153331;-55
2023/03/08 07:40:45;;;;;;;;;;;;;;;20.81;38.41;98848.81;7257941;19;153517;-54
2023/03/08 07:43:12;;;;;;;;;;;;;;;20.83;38.77;98846.47;7267103;19;152441;-54
2023/03/08 07:45:41;;;;;;;;;;;;;;;20.85;38.72;98846.91;7257427;19;153547;-54
2023/03/08 07:48:08;;;;;;;;;;;;;;;20.89;38.79;98849.00;7257318;19;152409;-54
2023/03/08 07:50:36;;;;;;;;;;;;;;;20.92;38.80;98845.47;7256534;19;155017;-54
2023/03/08 07:53:03;;;;;;;;;;;;;;;20.95;38.89;98841.91;7259670;19;153263;-55
2023/03/08 07:55:30;;;;;;;;;;;;;;;20.98;38.93;98841.22;7254476;19;152790;-55
2023/03/08 07:57:57;;;;;;;;;;;;;;;21.01;38.41;98840.47;7260492;19;152424;-55
2023/03/08 08:00:25;;;;;;;;;;;;;;;21.03;38.44;98846.56;7255882;19;153391;-55
2023/03/08 08:02:52;;;;;;;;;;;;;;;21.05;38.33;98838.56;7261321;19;156006;-55
2023/03/08 08:05:20;;;;;;;;;;;;;;;21.06;38.28;98846.66;7262366;19;153335;-54
2023/03/08 08:07:50;;;;;;;;;;;;;;;21.08;38.64;98858.31;7258981;19;154263;-54
2023/03/08 08:10:17;;;;;;;;;;;;;;;21.10;38.63;98855.97;7257122;19;152655;-55
2023/03/08 08:12:44;;;;;;;;;;;;;;;21.11;38.21;98856.78;7253598;19;153726;-55
2023/03/08 08:15:11;;;;;;;;;;;;;;;21.14;38.53;98850.47;7254762;19;153227;-54
2023/03/08 08:17:38;;;;;;;;;;;;;;;21.14;38.27;98845.66;7260014;19;154239;-54
2023/03/08 08:20:07;;;;;;;;;;;;;;;21.14;38.33;98845.66;7256363;19;153311;-55
2023/03/08 08:22:38;;;;;;;;;;;;;;;21.16;37.96;98848.13;7259480;19;153165;-54
2023/03/08 08:25:08;;;;;;;;;;;;;;;21.17;37.93;98850.53;7260296;19;154281;-55
2023/03/08 08:27:35;;;;;;;;;;;;;;;21.17;37.92;98846.91;7257954;19;152333;-54
2023/03/08 08:30:04;;;;;;;;;;;;;;;21.17;38.17;98849.72;7255973;19;155089;-54
2023/03/08 08:32:34;;;;;;;;;;;;;;;21.18;37.89;98851.38;7255245;19;155357;-54
2023/03/08 08:35:03;;;;;;;;;;;;;;;21.17;37.87;98858.16;7255086;19;153140;-54
2023/03/08 08:37:40;;;;;;;;;;;;;;;21.16;38.07;98860.16;7256203;19;153731;-53
2023/03/08 08:40:22;;;;;;;;;;;;;;;21.16;37.78;98867.78;7250792;19;155679;-54
2023/03/08 08:42:53;;;;;;;;;;;;;;;21.15;37.93;98866.97;7255502;19;154373;-54
2023/03/08 08:45:22;;;;;;;;;;;;;;;21.15;37.81;98866.16;7254224;19;153881;-54
2023/03/08 08:47:52;;;;;;;;;;;;;;;21.14;38.00;98881.34;7260008;19;154384;-58
2023/03/08 08:50:21;;;;;;;;;;;;;;;21.14;37.96;98870.13;7254576;19;153673;-53
2023/03/08 08:52:50;;;;;;;;;;;;;;;21.11;37.70;98874.47;7255205;19;152881;-54
2023/03/08 08:55:17;;;;;;;;;;;;;;;21.12;38.19;98875.28;7251664;19;154486;-54
2023/03/08 08:57:44;;;;;;;;;;;;;;;21.09;38.26;98865.56;7257512;19;154996;-54
2023/03/08 09:00:12;;;;;;;;;;;;;;;21.04;37.96;98859.41;7251212;19;155203;-54
2023/03/08 09:02:39;;;;;;;;;;;;;;;21.03;37.97;98849.38;7256147;19;152640;-54
2023/03/08 09:05:09;;;;;;;;;;;;;;;20.98;38.11;98842.03;7252754;19;153382;-54
2023/03/08 09:07:41;;;;;;;;;;;;;;;20.94;38.29;98821.44;7251956;19;152729;-54
2023/03/08 09:10:08;;;;;;;;;;;;;;;20.90;38.28;98805.69;7256376;19;154510;-53
2023/03/08 09:12:35;;;;;;;;;;;;;;;20.86;38.27;98814.03;7251526;19;153400;-54
2023/03/08 09:15:06;;;;;;;;;;;;;;;20.84;38.74;98813.59;7250431;19;154360;-53
2023/03/08 09:17:36;;;;;;;;;;;;;;;20.83;38.67;98811.97;7257795;19;153731;-53
2023/03/08 09:20:05;;;;;;;;;;;;;;;20.79;38.66;98823.09;7258268;19;156021;-54
2023/03/08 09:22:32;;;;;;;;;;;;;;;20.78;38.50;98827.09;7259188;19;152883;-53
2023/03/08 09:24:59;;;;;;;;;;;;;;;20.76;38.99;98846.25;7254073;19;154623;-54
2023/03/08 09:27:29;;;;;;;;;;;;;;;20.79;38.53;98841.94;7255409;19;153115;-54
2023/03/08 09:29:56;;;;;;;;;;;;;;;20.78;38.73;98848.72;7254664;19;153327;-54
2023/03/08 09:32:24;;;;;;;;;;;;;;;20.79;38.83;98836.31;7263665;19;153910;-54
2023/03/08 09:34:54;;;;;;;;;;;;;;;20.77;38.85;98833.88;7254923;19;152529;-54
2023/03/08 09:37:21;;;;;;;;;;;;;;;20.74;38.53;98837.41;7257100;19;154957;-54
2023/03/08 09:39:50;;;;;;;;;;;;;;;20.73;38.72;98847.00;7252342;19;153972;-54
2023/03/08 09:42:20;;;;;;;;;;;;;;;20.69;38.67;98837.66;7257193;19;153305;-54
2023/03/08 09:44:47;;;;;;;;;;;;;;;20.66;38.51;98835.59;7254063;19;153545;-55
2023/03/08 09:47:17;;;;;;;;;;;;;;;20.66;39.17;98846.81;7251877;19;153459;-54
2023/03/08 09:49:46;;;;;;;;;;;;;;;20.64;38.58;98831.50;7252676;19;153903;-53
2023/03/08 09:52:15;;;;;;;;;;;;;;;20.61;38.81;98835.88;7254352;19;153349;-53
2023/03/08 09:54:44;;;;;;;;;;;;;;;20.57;38.80;98839.75;7256723;19;154401;-53
2023/03/08 09:57:15;;;;;;;;;;;;;;;20.52;38.74;98846.44;7255118;19;155637;-53
2023/03/08 09:59:53;;;;;;;;;;;;;;;20.46;38.29;98838.63;7253158;19;154428;-53
2023/03/08 10:02:23;;;;;;;;;;;;;;;20.44;38.32;98861.44;7255803;19;153537;-53
2023/03/08 10:04:54;;;;;;;;;;;;;;;20.42;38.30;98842.16;7253061;19;154209;-54
2023/03/08 10:07:40;;;;;;;;;;;;;;;20.39;38.38;98844.88;7253959;19;153807;-53
2023/03/08 10:10:08;;;;;;;;;;;;;;;20.36;38.60;98848.38;7238001;19;154086;-53
2023/03/08 10:12:43;;;;;;;;;;;;;;;20.32;38.24;98844.66;7250764;19;153963;-53
2023/03/08 10:15:14;;;;;;;;;;;;;;;20.31;38.26;98821.41;7246604;19;154656;-53
2023/03/08 10:17:42;;;;;;;;;;;;;;;20.34;38.38;98817.91;7262844;19;153368;-53
2023/03/08 10:20:12;;;;;;;;;;;;;;;20.36;38.39;98820.34;7252790;19;153677;-53
2023/03/08 10:22:41;;;;;;;;;;;;;;;20.34;38.47;98814.28;7253140;19;153987;-53
2023/03/08 10:25:17;;;;;;;;;;;;;;;20.33;38.45;98819.06;7249186;19;152529;-54
2023/03/08 10:27:46;;;;;;;;;;;;;;;20.36;38.74;98826.75;7253275;19;155112;-53
2023/03/08 10:30:15;;;;;;;;;;;;;;;20.41;38.41;98836.91;7257665;19;152945;-54
2023/03/08 10:32:43;;;;;;;;;;;;;;;20.45;38.46;98829.41;7258760;19;154031;-53
2023/03/08 10:35:10;;;;;;;;;;;;;;;20.47;38.45;98829.03;7259176;19;154513;-54
2023/03/08 10:37:37;;;;;;;;;;;;;;;20.50;38.81;98834.75;7267325;19;154128;-53
2023/03/08 10:40:07;;;;;;;;;;;;;;;20.53;38.80;98825.63;7255547;19;156141;-53
2023/03/08 10:42:35;;;;;;;;;;;;;;;20.56;38.71;98826.88;7258550;19;152367;-53
2023/03/08 10:45:02;;;;;;;;;;;;;;;20.58;39.14;98825.34;7259046;19;153433;-53
2023/03/08 10:47:31;;;;;;;;;;;;;;;20.62;38.27;98826.28;7257182;19;154562;-58
2023/03/08 10:50:01;;;;;;;;;;;;;;;20.65;38.49;98817.13;7258451;19;153884;-54
2023/03/08 10:52:28;;;;;;;;;;;;;;;20.67;38.33;98814.75;7260458;19;153275;-54
2023/03/08 10:55:00;;;;;;;;;;;;;;;20.70;38.41;98811.25;7255610;19;153697;-54
2023/03/08 10:57:28;;;;;;;;;;;;;;;20.74;38.11;98826.19;7262014;19;154210;-54
2023/03/08 10:59:57;;;;;;;;;;;;;;;20.76;38.07;98815.41;7265024;19;152986;-54
2023/03/08 11:02:25;;;;;;;;;;;;;;;20.80;37.92;98807.88;7258690;19;152917;-54
2023/03/08 11:04:55;;;;;;;;;;;;;;;20.83;37.66;98809.97;7257227;19;153815;-54
2023/03/08 11:07:23;;;;;;;;;;;;;;;20.87;37.51;98807.25;7256440;19;153648;-54
2023/03/08 11:09:50;;;;;;;;;;;;;;;20.88;37.80;98803.28;7253630;19;153684;-54
2023/03/08 11:12:20;;;;;;;;;;;;;;;20.90;37.49;98814.94;7257206;19;153995;-54
2023/03/08 11:14:47;;;;;;;;;;;;;;;20.93;37.49;98825.47;7252242;19;153122;-54
2023/03/08 11:17:17;;;;;;;;;;;;;;;20.95;37.66;98817.47;7253282;19;153852;-54
2023/03/08 11:19:49;;;;;;;;;;;;;;;20.97;37.15;98817.13;7259046;19;154296;-56
2023/03/08 11:22:20;;;;;;;;;;;;;;;20.99;37.39;98817.56;7263697;19;153829;-56
2023/03/08 11:24:50;;;;;;;;;;;;;;;20.99;37.09;98815.56;7253582;19;153768;-56
2023/03/08 11:27:23;;;;;;;;;;;;;;;21.00;37.01;98814.41;7255881;19;154831;-56
2023/03/08 11:29:53;;;;;;;;;;;;;;;20.80;35.87;98807.88;7256007;19;152243;-55
2023/03/08 11:32:29;;;;;;;;;;;;;;;20.55;33.26;98825.25;7257448;19;153251;-54
2023/03/08 11:34:56;;;;;;;;;;;;;;;20.42;33.92;98810.50;7254589;19;154843;-56
2023/03/08 11:37:27;;;;;;;;;;;;;;;20.54;34.22;98812.38;7256404;19;154250;-54
2023/03/08 11:39:54;;;;;;;;;;;;;;;20.60;35.04;98825.81;7250707;19;152692;-54
2023/03/08 11:42:25;;;;;;;;;;;;;;;20.62;35.26;98801.03;7255865;19;152967;-54
2023/03/08 11:44:52;;;;;;;;;;;;;;;20.60;35.13;98797.75;7265556;19;153003;-54
2023/03/08 11:47:22;;;;;;;;;;;;;;;20.61;35.52;98804.19;7255526;19;154201;-54
2023/03/08 11:49:52;;;;;;;;;;;;;;;20.57;35.46;98814.50;7253212;19;153025;-54
2023/03/08 11:52:20;;;;;;;;;;;;;;;20.56;35.54;98810.88;7255792;19;153185;-54
2023/03/08 11:54:50;;;;;;;;;;;;;;;20.55;35.46;98803.63;7251001;19;152927;-54
2023/03/08 11:57:17;;;;;;;;;;;;;;;20.60;35.68;98810.97;7256202;19;153422;-54
2023/03/08 11:59:48;;;;;;;;;;;;;;;20.58;35.67;98816.91;7255829;19;151769;-54
2023/03/08 12:02:21;;;;;;;;;;;;;;;20.59;35.63;98817.75;7254982;19;152189;-54
2023/03/08 12:04:54;;;;;;;;;;;;;;;20.58;35.73;98813.34;7254990;19;152115;-54
2023/03/08 12:07:26;;;;;;;;;;;;;;;20.59;35.44;98817.75;7262173;19;153444;-54
2023/03/08 12:09:57;;;;;;;;;;;;;;;20.61;35.57;98827.44;7254375;19;154320;-54
2023/03/08 12:12:27;;;;;;;;;;;;;;;20.62;35.71;98822.66;7259657;19;153193;-54
2023/03/08 12:14:57;;;;;;;;;;;;;;;20.61;35.63;98819.03;7256200;19;155828;-56
2023/03/08 12:17:27;;;;;;;;;;;;;;;20.61;35.73;98807.81;7252902;19;154195;-56
2023/03/08 12:19:55;;;;;;;;;;;;;;;20.60;35.70;98806.16;7257007;19;152730;-55
2023/03/08 12:22:25;;;;;;;;;;;;;;;20.60;35.37;98805.34;7254846;19;152699;-56
2023/03/08 12:24:58;;;;;;;;;;;;;;;20.57;35.63;98798.47;7255725;19;153508;-55
2023/03/08 12:27:25;;;;;;;;;;;;;;;20.54;35.56;98806.78;7257734;19;153088;-56
2023/03/08 12:29:55;;;;;;;;;;;;;;;20.52;35.87;98807.16;7262151;19;153034;-55
2023/03/08 12:32:23;;;;;;;;;;;;;;;20.50;35.94;98795.47;7256196;19;154827;-55
2023/03/08 12:34:53;;;;;;;;;;;;;;;20.48;35.93;98802.63;7253337;19;155299;-55
2023/03/08 12:37:23;;;;;;;;;;;;;;;20.43;35.96;98798.09;7253969;19;152216;-55
2023/03/08 12:39:53;;;;;;;;;;;;;;;20.42;35.90;98810.50;7253482;19;153443;-55
2023/03/08 12:42:23;;;;;;;;;;;;;;;20.39;36.12;98800.81;7258660;19;156406;-56
2023/03/08 12:44:50;;;;;;;;;;;;;;;20.38;35.65;98798.38;7254794;19;153346;-55
2023/03/08 12:47:20;;;;;;;;;;;;;;;20.35;35.77;98779.47;7253059;19;153902;-55
2023/03/08 12:49:50;;;;;;;;;;;;;;;20.32;36.08;98791.38;7258270;19;153559;-55